RPA4762 KRDU-KBNA
Flight info
| Callsign | RPA4762 |
|---|---|
| Flight time | N/A |
| Altitude | 26000 |
| Route | SHPRD4 SHPRD EDDDY SWFFT3 |
| Aircraft | E75S/M-SDE3GILORVW/S |
Departure
| Time | 2026-05-07 01:02 |
|---|---|
| Airport | Raleigh-Durham International Airport (KRDU) |
Arrival
| Time | N/A |
|---|---|
| Airport | Nashville International Airport (KBNA) |
| Time | Latitude | Longitude | Altitude | Speed | Heading |
|---|---|---|---|---|---|
| 2026-05-07 00:19 | 35.87845 | -78.79307 | 389 ft | 0 kts | 138° |
| 2026-05-07 00:49 | 35.87848 | -78.79310 | 389 ft | 3 kts | 137° |
| 2026-05-07 00:50 | 35.87865 | -78.79336 | 390 ft | 4 kts | 114° |
| 2026-05-07 00:50 | 35.87869 | -78.79368 | 390 ft | 4 kts | 78° |
| 2026-05-07 00:50 | 35.87858 | -78.79394 | 390 ft | 2 kts | 45° |
| 2026-05-07 00:50 | 35.87857 | -78.79395 | 390 ft | 0 kts | 45° |
| 2026-05-07 00:53 | 35.87858 | -78.79394 | 390 ft | 1 kts | 45° |
| 2026-05-07 00:53 | 35.87870 | -78.79380 | 390 ft | 4 kts | 45° |
| 2026-05-07 00:53 | 35.87896 | -78.79347 | 390 ft | 7 kts | 45° |
| 2026-05-07 00:54 | 35.87935 | -78.79298 | 389 ft | 10 kts | 45° |
| 2026-05-07 00:54 | 35.87990 | -78.79230 | 389 ft | 13 kts | 45° |
| 2026-05-07 00:54 | 35.88065 | -78.79136 | 389 ft | 18 kts | 45° |
| 2026-05-07 00:54 | 35.88161 | -78.79015 | 389 ft | 22 kts | 45° |
| 2026-05-07 00:55 | 35.88276 | -78.78871 | 389 ft | 25 kts | 45° |
| 2026-05-07 00:55 | 35.88405 | -78.78709 | 389 ft | 28 kts | 45° |
| 2026-05-07 00:55 | 35.88549 | -78.78534 | 389 ft | 30 kts | 45° |
| 2026-05-07 00:55 | 35.88700 | -78.78349 | 390 ft | 28 kts | 45° |
| 2026-05-07 00:56 | 35.88838 | -78.78178 | 389 ft | 29 kts | 45° |
| 2026-05-07 00:56 | 35.88969 | -78.78007 | 389 ft | 24 kts | 60° |
| 2026-05-07 00:56 | 35.89034 | -78.77854 | 389 ft | 20 kts | 47° |
| 2026-05-07 00:56 | 35.89137 | -78.77729 | 389 ft | 18 kts | 45° |
| 2026-05-07 00:57 | 35.89192 | -78.77660 | 389 ft | 7 kts | 45° |
| 2026-05-07 00:57 | 35.89228 | -78.77642 | 389 ft | 2 kts | 330° |
| 2026-05-07 00:57 | 35.89241 | -78.77654 | 389 ft | 0 kts | 316° |
| 2026-05-07 00:58 | 35.89256 | -78.77672 | 390 ft | 5 kts | 315° |
| 2026-05-07 00:59 | 35.89302 | -78.77728 | 390 ft | 1 kts | 315° |
| 2026-05-07 00:59 | 35.89306 | -78.77733 | 390 ft | 0 kts | 315° |
| 2026-05-07 01:00 | 35.89308 | -78.77735 | 390 ft | 1 kts | 315° |
| 2026-05-07 01:00 | 35.89325 | -78.77756 | 390 ft | 6 kts | 315° |
| 2026-05-07 01:01 | 35.89360 | -78.77810 | 391 ft | 7 kts | 279° |
| 2026-05-07 01:01 | 35.89340 | -78.77860 | 390 ft | 0 kts | 224° |
| 2026-05-07 01:01 | 35.89324 | -78.77879 | 390 ft | 20 kts | 224° |
| 2026-05-07 01:01 | 35.89011 | -78.78260 | 389 ft | 105 kts | 225° |
| 2026-05-07 01:02 | 35.88325 | -78.79120 | 451 ft | 171 kts | 224° |
| 2026-05-07 01:02 | 35.87432 | -78.80221 | 1172 ft | 191 kts | 226° |
| 2026-05-07 01:02 | 35.86461 | -78.81463 | 2126 ft | 204 kts | 227° |
| 2026-05-07 01:02 | 35.85469 | -78.82789 | 2990 ft | 226 kts | 230° |
| 2026-05-07 01:03 | 35.84438 | -78.84268 | 4265 ft | 228 kts | 231° |
| 2026-05-07 01:03 | 35.83353 | -78.85733 | 5426 ft | 237 kts | 231° |
| 2026-05-07 01:03 | 35.82299 | -78.87280 | 6535 ft | 236 kts | 242° |
| 2026-05-07 01:03 | 35.81882 | -78.89278 | 7427 ft | 246 kts | 269° |
| 2026-05-07 01:04 | 35.81930 | -78.91412 | 8456 ft | 252 kts | 271° |
| 2026-05-07 01:04 | 35.82027 | -78.93569 | 9508 ft | 258 kts | 271° |
| 2026-05-07 01:04 | 35.82115 | -78.95804 | 10456 ft | 269 kts | 271° |
| 2026-05-07 01:04 | 35.82192 | -78.98189 | 11080 ft | 287 kts | 271° |
| 2026-05-07 01:05 | 35.82266 | -79.00660 | 12122 ft | 290 kts | 271° |
| 2026-05-07 01:05 | 35.82334 | -79.03149 | 13232 ft | 293 kts | 270° |
| 2026-05-07 01:05 | 35.82408 | -79.05684 | 14259 ft | 298 kts | 271° |
| 2026-05-07 01:05 | 35.82498 | -79.08255 | 14842 ft | 302 kts | 272° |
| 2026-05-07 01:06 | 35.82611 | -79.10802 | 15246 ft | 294 kts | 273° |
| 2026-05-07 01:06 | 35.82734 | -79.13319 | 16299 ft | 296 kts | 273° |
| 2026-05-07 01:06 | 35.82845 | -79.15870 | 17274 ft | 300 kts | 273° |
| 2026-05-07 01:06 | 35.82952 | -79.18450 | 18254 ft | 302 kts | 274° |
| 2026-05-07 01:07 | 35.83066 | -79.21057 | 19025 ft | 306 kts | 274° |
| 2026-05-07 01:07 | 35.83193 | -79.23692 | 19801 ft | 310 kts | 274° |
| 2026-05-07 01:07 | 35.83333 | -79.26352 | 20588 ft | 313 kts | 274° |
| 2026-05-07 01:07 | 35.83479 | -79.29051 | 21330 ft | 317 kts | 273° |
| 2026-05-07 01:08 | 35.83351 | -79.31792 | 22043 ft | 322 kts | 266° |
| 2026-05-07 01:08 | 35.83162 | -79.34557 | 22787 ft | 325 kts | 267° |
| 2026-05-07 01:08 | 35.82993 | -79.37315 | 23452 ft | 329 kts | 267° |
| 2026-05-07 01:08 | 35.82806 | -79.40135 | 24029 ft | 332 kts | 266° |
| 2026-05-07 01:09 | 35.82589 | -79.43016 | 24642 ft | 333 kts | 265° |
| 2026-05-07 01:09 | 35.82365 | -79.45816 | 25281 ft | 333 kts | 265° |
| 2026-05-07 01:09 | 35.82138 | -79.48660 | 25771 ft | 336 kts | 265° |
| 2026-05-07 01:09 | 35.81911 | -79.51539 | 26183 ft | 343 kts | 265° |
| 2026-05-07 01:10 | 35.81547 | -79.54526 | 26137 ft | 362 kts | 259° |
| 2026-05-07 01:10 | 35.81014 | -79.57635 | 25845 ft | 376 kts | 261° |
| 2026-05-07 01:10 | 35.80510 | -79.60796 | 26004 ft | 378 kts | 261° |
| 2026-05-07 01:10 | 35.79994 | -79.63997 | 25946 ft | 382 kts | 260° |
| 2026-05-07 01:11 | 35.79455 | -79.67204 | 25979 ft | 382 kts | 260° |
| 2026-05-07 01:11 | 35.78903 | -79.70404 | 25967 ft | 382 kts | 260° |
| 2026-05-07 01:11 | 35.78349 | -79.73605 | 25975 ft | 382 kts | 260° |
| 2026-05-07 01:11 | 35.77798 | -79.76800 | 25980 ft | 382 kts | 260° |
| 2026-05-07 01:12 | 35.77248 | -79.80001 | 25997 ft | 382 kts | 260° |
| 2026-05-07 01:12 | 35.76701 | -79.83184 | 25982 ft | 378 kts | 260° |
| 2026-05-07 01:12 | 35.76156 | -79.86358 | 25989 ft | 380 kts | 260° |
| 2026-05-07 01:12 | 35.75800 | -79.89550 | 25995 ft | 378 kts | 266° |
| 2026-05-07 01:13 | 35.75660 | -79.92793 | 25992 ft | 378 kts | 268° |
| 2026-05-07 01:13 | 35.75554 | -79.96026 | 25978 ft | 380 kts | 268° |
| 2026-05-07 01:13 | 35.75454 | -79.99265 | 25986 ft | 378 kts | 268° |
| 2026-05-07 01:13 | 35.75355 | -80.02502 | 25982 ft | 378 kts | 268° |
| 2026-05-07 01:14 | 35.75259 | -80.05738 | 25979 ft | 378 kts | 268° |
| 2026-05-07 01:14 | 35.75165 | -80.08966 | 25965 ft | 378 kts | 268° |
| 2026-05-07 01:14 | 35.75071 | -80.12196 | 25967 ft | 378 kts | 268° |
| 2026-05-07 01:14 | 35.74981 | -80.15433 | 25973 ft | 378 kts | 268° |
| 2026-05-07 01:15 | 35.74890 | -80.18652 | 25961 ft | 373 kts | 268° |
| 2026-05-07 01:15 | 35.74810 | -80.21840 | 25982 ft | 372 kts | 268° |
| 2026-05-07 01:15 | 35.74732 | -80.25026 | 25970 ft | 373 kts | 268° |
| 2026-05-07 01:15 | 35.74657 | -80.28219 | 25967 ft | 373 kts | 268° |
| 2026-05-07 01:16 | 35.74583 | -80.31407 | 25971 ft | 373 kts | 268° |
| 2026-05-07 01:16 | 35.74511 | -80.34545 | 25966 ft | 373 kts | 269° |
| 2026-05-07 01:16 | 35.74438 | -80.37773 | 25972 ft | 373 kts | 269° |
| 2026-05-07 01:16 | 35.74368 | -80.40927 | 25977 ft | 373 kts | 269° |
| 2026-05-07 01:17 | 35.74296 | -80.44116 | 25967 ft | 373 kts | 269° |
| 2026-05-07 01:17 | 35.74225 | -80.47318 | 25965 ft | 373 kts | 269° |
| 2026-05-07 01:17 | 35.74159 | -80.50497 | 25974 ft | 373 kts | 269° |
| 2026-05-07 01:17 | 35.74095 | -80.53693 | 25969 ft | 373 kts | 269° |
| 2026-05-07 01:18 | 35.74032 | -80.56863 | 25963 ft | 369 kts | 269° |
| 2026-05-07 01:18 | 35.73970 | -80.60021 | 25974 ft | 370 kts | 269° |
| 2026-05-07 01:18 | 35.73908 | -80.63178 | 25957 ft | 369 kts | 269° |
| 2026-05-07 01:18 | 35.73847 | -80.66348 | 25964 ft | 369 kts | 269° |
| 2026-05-07 01:19 | 35.73787 | -80.69519 | 25964 ft | 369 kts | 269° |
| 2026-05-07 01:19 | 35.73730 | -80.72677 | 25967 ft | 369 kts | 269° |
| 2026-05-07 01:19 | 35.73675 | -80.75836 | 25971 ft | 369 kts | 269° |
| 2026-05-07 01:19 | 35.73621 | -80.78998 | 25972 ft | 370 kts | 269° |
| 2026-05-07 01:20 | 35.73568 | -80.82165 | 25977 ft | 370 kts | 269° |
| 2026-05-07 01:20 | 35.73517 | -80.85323 | 25980 ft | 370 kts | 269° |
| 2026-05-07 01:20 | 35.73466 | -80.88481 | 25983 ft | 370 kts | 269° |
| 2026-05-07 01:20 | 35.73362 | -80.91659 | 26002 ft | 369 kts | 267° |
| 2026-05-07 01:21 | 35.73223 | -80.94816 | 25974 ft | 367 kts | 267° |
| 2026-05-07 01:21 | 35.73085 | -80.97919 | 25986 ft | 368 kts | 267° |
| 2026-05-07 01:21 | 35.72944 | -81.01063 | 25980 ft | 368 kts | 267° |
| 2026-05-07 01:21 | 35.72803 | -81.04212 | 25979 ft | 368 kts | 267° |
| 2026-05-07 01:22 | 35.72664 | -81.07362 | 25977 ft | 368 kts | 267° |
| 2026-05-07 01:22 | 35.72527 | -81.10508 | 25974 ft | 368 kts | 267° |
| 2026-05-07 01:22 | 35.72391 | -81.13644 | 25971 ft | 367 kts | 267° |
| 2026-05-07 01:22 | 35.72258 | -81.16788 | 25966 ft | 368 kts | 267° |
| 2026-05-07 01:23 | 35.72129 | -81.19941 | 25969 ft | 368 kts | 267° |
| 2026-05-07 01:23 | 35.71999 | -81.23087 | 25975 ft | 368 kts | 267° |
| 2026-05-07 01:23 | 35.71869 | -81.26239 | 25980 ft | 368 kts | 267° |
| 2026-05-07 01:23 | 35.71741 | -81.29383 | 25983 ft | 367 kts | 267° |
| 2026-05-07 01:24 | 35.71616 | -81.32508 | 25990 ft | 366 kts | 267° |
| 2026-05-07 01:24 | 35.71496 | -81.35642 | 25982 ft | 366 kts | 267° |
| 2026-05-07 01:24 | 35.71377 | -81.38770 | 25978 ft | 366 kts | 267° |
| 2026-05-07 01:24 | 35.71259 | -81.41901 | 25979 ft | 366 kts | 267° |
| 2026-05-07 01:25 | 35.71144 | -81.45030 | 25983 ft | 366 kts | 267° |
| 2026-05-07 01:25 | 35.71031 | -81.48149 | 25985 ft | 366 kts | 267° |
| 2026-05-07 01:25 | 35.70918 | -81.51289 | 25972 ft | 366 kts | 267° |
| 2026-05-07 01:25 | 35.70844 | -81.53361 | 25987 ft | 367 kts | 267° |
| 2026-05-07 01:26 | 35.70734 | -81.56499 | 26031 ft | 367 kts | 267° |
| 2026-05-07 01:26 | 35.70590 | -81.60691 | 26044 ft | 367 kts | 268° |
| 2026-05-07 01:26 | 35.70541 | -81.62775 | 26039 ft | 367 kts | 268° |
| 2026-05-07 01:26 | 35.70482 | -81.65915 | 26034 ft | 366 kts | 268° |
| 2026-05-07 01:27 | 35.70420 | -81.70065 | 26031 ft | 365 kts | 268° |
| 2026-05-07 01:27 | 35.70382 | -81.73183 | 26030 ft | 365 kts | 268° |
| 2026-05-07 01:27 | 35.70357 | -81.75246 | 26015 ft | 365 kts | 268° |
| 2026-05-07 01:27 | 35.70323 | -81.78367 | 26014 ft | 364 kts | 268° |
| 2026-05-07 01:28 | 35.70287 | -81.81499 | 26003 ft | 365 kts | 268° |
| 2026-05-07 01:28 | 35.70251 | -81.84595 | 25996 ft | 364 kts | 268° |
| 2026-05-07 01:28 | 35.70215 | -81.87722 | 25989 ft | 364 kts | 269° |
| 2026-05-07 01:28 | 35.70182 | -81.90840 | 25986 ft | 364 kts | 268° |
| 2026-05-07 01:29 | 35.70148 | -81.93953 | 25971 ft | 364 kts | 269° |
| 2026-05-07 01:29 | 35.70115 | -81.97067 | 25978 ft | 365 kts | 269° |
| 2026-05-07 01:29 | 35.70084 | -82.00189 | 25977 ft | 364 kts | 269° |
| 2026-05-07 01:29 | 35.70056 | -82.03309 | 25975 ft | 365 kts | 269° |
| 2026-05-07 01:30 | 35.70026 | -82.06428 | 25970 ft | 365 kts | 269° |
| 2026-05-07 01:30 | 35.69999 | -82.09549 | 25972 ft | 365 kts | 268° |
| 2026-05-07 01:30 | 35.69960 | -82.12670 | 25974 ft | 365 kts | 268° |
| 2026-05-07 01:30 | 35.69940 | -82.15788 | 25983 ft | 364 kts | 269° |
| 2026-05-07 01:31 | 35.69920 | -82.18911 | 25979 ft | 366 kts | 269° |
| 2026-05-07 01:31 | 35.69893 | -82.22046 | 25946 ft | 365 kts | 269° |
| 2026-05-07 01:31 | 35.69869 | -82.25121 | 25952 ft | 363 kts | 269° |
| 2026-05-07 01:31 | 35.69852 | -82.28227 | 26011 ft | 363 kts | 269° |
| 2026-05-07 01:32 | 35.69835 | -82.31366 | 25963 ft | 366 kts | 269° |
| 2026-05-07 01:32 | 35.69816 | -82.34475 | 25963 ft | 362 kts | 268° |
| 2026-05-07 01:32 | 35.69803 | -82.37579 | 25955 ft | 363 kts | 269° |
| 2026-05-07 01:32 | 35.69795 | -82.40673 | 25989 ft | 365 kts | 269° |
| 2026-05-07 01:33 | 35.69793 | -82.43809 | 25967 ft | 364 kts | 269° |
| 2026-05-07 01:33 | 35.69796 | -82.46922 | 25963 ft | 364 kts | 269° |
| 2026-05-07 01:33 | 35.69801 | -82.50033 | 25993 ft | 364 kts | 269° |
| 2026-05-07 01:33 | 35.69807 | -82.53160 | 25993 ft | 364 kts | 269° |
| 2026-05-07 01:34 | 35.69813 | -82.56267 | 25998 ft | 364 kts | 269° |
| 2026-05-07 01:34 | 35.69821 | -82.59382 | 25992 ft | 364 kts | 269° |
| 2026-05-07 01:34 | 35.69829 | -82.62493 | 25980 ft | 363 kts | 269° |
| 2026-05-07 01:34 | 35.69842 | -82.65603 | 25998 ft | 363 kts | 269° |
| 2026-05-07 01:35 | 35.69858 | -82.68714 | 25986 ft | 364 kts | 269° |
| 2026-05-07 01:35 | 35.69873 | -82.71827 | 25980 ft | 364 kts | 269° |
| 2026-05-07 01:35 | 35.69889 | -82.74940 | 25983 ft | 364 kts | 269° |
| 2026-05-07 01:35 | 35.69911 | -82.78016 | 25962 ft | 364 kts | 269° |
| 2026-05-07 01:36 | 35.69941 | -82.81137 | 25978 ft | 365 kts | 269° |
| 2026-05-07 01:36 | 35.69979 | -82.84266 | 25985 ft | 367 kts | 269° |
| 2026-05-07 01:36 | 35.70029 | -82.87389 | 25958 ft | 363 kts | 269° |
| 2026-05-07 01:36 | 35.70073 | -82.90502 | 25973 ft | 366 kts | 269° |
| 2026-05-07 01:37 | 35.70118 | -82.93630 | 25966 ft | 363 kts | 269° |
| 2026-05-07 01:37 | 35.70159 | -82.96735 | 25971 ft | 364 kts | 269° |
| 2026-05-07 01:37 | 35.70196 | -82.99845 | 25969 ft | 364 kts | 269° |
| 2026-05-07 01:37 | 35.70240 | -83.02953 | 25979 ft | 363 kts | 269° |
| 2026-05-07 01:38 | 35.70287 | -83.06064 | 25975 ft | 362 kts | 269° |
| 2026-05-07 01:38 | 35.70335 | -83.09168 | 25976 ft | 363 kts | 269° |
| 2026-05-07 01:38 | 35.70390 | -83.12259 | 26019 ft | 360 kts | 269° |
| 2026-05-07 01:38 | 35.70453 | -83.15369 | 25974 ft | 363 kts | 269° |
| 2026-05-07 01:39 | 35.70516 | -83.18469 | 25946 ft | 361 kts | 269° |
| 2026-05-07 01:39 | 35.70592 | -83.21557 | 25983 ft | 363 kts | 269° |
| 2026-05-07 01:39 | 35.70650 | -83.24661 | 25976 ft | 364 kts | 269° |
| 2026-05-07 01:39 | 35.70726 | -83.27770 | 25970 ft | 362 kts | 269° |
| 2026-05-07 01:40 | 35.70797 | -83.30871 | 25969 ft | 363 kts | 269° |
| 2026-05-07 01:40 | 35.70867 | -83.33929 | 25976 ft | 362 kts | 269° |
| 2026-05-07 01:40 | 35.70931 | -83.37040 | 25977 ft | 363 kts | 269° |
| 2026-05-07 01:40 | 35.71002 | -83.40135 | 25955 ft | 361 kts | 269° |
| 2026-05-07 01:41 | 35.71076 | -83.43225 | 25966 ft | 359 kts | 269° |
| 2026-05-07 01:41 | 35.71145 | -83.46309 | 25981 ft | 361 kts | 269° |
| 2026-05-07 01:41 | 35.71229 | -83.49409 | 25984 ft | 362 kts | 269° |
| 2026-05-07 01:41 | 35.71310 | -83.52514 | 25986 ft | 362 kts | 269° |
| 2026-05-07 01:42 | 35.71400 | -83.55609 | 25992 ft | 362 kts | 269° |
| 2026-05-07 01:42 | 35.71493 | -83.58708 | 25995 ft | 363 kts | 269° |
| 2026-05-07 01:42 | 35.71592 | -83.61805 | 25988 ft | 362 kts | 270° |
| 2026-05-07 01:42 | 35.71704 | -83.64902 | 25973 ft | 361 kts | 270° |
| 2026-05-07 01:43 | 35.71815 | -83.67988 | 25978 ft | 361 kts | 270° |
| 2026-05-07 01:43 | 35.71926 | -83.71079 | 25967 ft | 361 kts | 270° |
| 2026-05-07 01:43 | 35.72031 | -83.74166 | 25967 ft | 362 kts | 270° |
| 2026-05-07 01:43 | 35.72164 | -83.77258 | 25970 ft | 362 kts | 270° |
| 2026-05-07 01:44 | 35.72287 | -83.80359 | 25980 ft | 362 kts | 270° |
| 2026-05-07 01:44 | 35.72407 | -83.83406 | 25971 ft | 360 kts | 270° |
| 2026-05-07 01:44 | 35.72533 | -83.86503 | 25985 ft | 362 kts | 270° |
| 2026-05-07 01:44 | 35.72657 | -83.89599 | 25980 ft | 362 kts | 270° |
| 2026-05-07 01:45 | 35.72782 | -83.92683 | 25978 ft | 361 kts | 270° |
| 2026-05-07 01:45 | 35.72919 | -83.95773 | 25986 ft | 361 kts | 270° |
| 2026-05-07 01:45 | 35.73060 | -83.98864 | 25981 ft | 361 kts | 270° |
| 2026-05-07 01:45 | 35.73203 | -84.01946 | 25979 ft | 361 kts | 270° |
| 2026-05-07 01:46 | 35.73345 | -84.05039 | 25974 ft | 362 kts | 270° |
| 2026-05-07 01:46 | 35.73487 | -84.08132 | 25799 ft | 361 kts | 270° |
| 2026-05-07 01:46 | 35.73629 | -84.11211 | 25645 ft | 360 kts | 270° |
| 2026-05-07 01:46 | 35.73769 | -84.14273 | 25495 ft | 359 kts | 270° |
| 2026-05-07 01:47 | 35.73908 | -84.17343 | 25348 ft | 358 kts | 270° |
| 2026-05-07 01:47 | 35.74046 | -84.20395 | 25200 ft | 357 kts | 270° |
| 2026-05-07 01:47 | 35.74181 | -84.23453 | 25026 ft | 357 kts | 270° |
| 2026-05-07 01:47 | 35.74316 | -84.26504 | 24848 ft | 356 kts | 270° |
| 2026-05-07 01:48 | 35.74450 | -84.29534 | 24686 ft | 355 kts | 270° |
| 2026-05-07 01:48 | 35.74585 | -84.32554 | 24507 ft | 353 kts | 270° |
| 2026-05-07 01:48 | 35.74709 | -84.35561 | 24342 ft | 351 kts | 269° |
| 2026-05-07 01:48 | 35.74763 | -84.38573 | 24167 ft | 351 kts | 268° |
| 2026-05-07 01:49 | 35.74790 | -84.41537 | 23972 ft | 350 kts | 268° |
| 2026-05-07 01:49 | 35.74812 | -84.44536 | 23778 ft | 349 kts | 268° |
| 2026-05-07 01:49 | 35.74830 | -84.47526 | 23574 ft | 349 kts | 268° |
| 2026-05-07 01:49 | 35.74845 | -84.50505 | 23358 ft | 347 kts | 268° |
| 2026-05-07 01:50 | 35.74857 | -84.53469 | 23133 ft | 345 kts | 268° |
| 2026-05-07 01:50 | 35.74871 | -84.56426 | 22910 ft | 344 kts | 268° |
| 2026-05-07 01:50 | 35.74884 | -84.59356 | 22688 ft | 341 kts | 268° |
| 2026-05-07 01:50 | 35.74896 | -84.62273 | 22466 ft | 339 kts | 268° |
| 2026-05-07 01:51 | 35.74906 | -84.65173 | 22252 ft | 338 kts | 268° |
| 2026-05-07 01:51 | 35.74920 | -84.68064 | 22047 ft | 337 kts | 268° |
| 2026-05-07 01:51 | 35.74893 | -84.70942 | 21834 ft | 336 kts | 266° |
| 2026-05-07 01:51 | 35.74782 | -84.73780 | 21605 ft | 323 kts | 265° |
| 2026-05-07 01:52 | 35.74666 | -84.76453 | 21382 ft | 303 kts | 265° |
| 2026-05-07 01:52 | 35.74559 | -84.78982 | 21175 ft | 290 kts | 265° |
| 2026-05-07 01:52 | 35.74454 | -84.81462 | 21002 ft | 292 kts | 266° |
| 2026-05-07 01:52 | 35.74359 | -84.83974 | 20851 ft | 295 kts | 265° |
| 2026-05-07 01:53 | 35.74175 | -84.86479 | 20684 ft | 294 kts | 262° |
| 2026-05-07 01:53 | 35.73837 | -84.88956 | 20514 ft | 293 kts | 259° |
| 2026-05-07 01:53 | 35.73426 | -84.91400 | 20326 ft | 292 kts | 258° |
| 2026-05-07 01:53 | 35.72999 | -84.93825 | 20191 ft | 288 kts | 258° |
| 2026-05-07 01:54 | 35.72565 | -84.96220 | 20031 ft | 286 kts | 258° |
| 2026-05-07 01:54 | 35.72129 | -84.98566 | 19880 ft | 283 kts | 258° |
| 2026-05-07 01:54 | 35.71674 | -85.00913 | 19726 ft | 281 kts | 257° |
| 2026-05-07 01:54 | 35.71213 | -85.03242 | 19610 ft | 279 kts | 257° |